Adak, Alaska
Current Conditions -  °F | °C
As of 10:36 PM on Saturday 22 Nov 2014 (Local Time) from PADK Reporting Station
Broken Clouds Broken Clouds  
Wind Chill: 29°   Ceiling: 4300
Heat Index: 37°   Visibility: 10mi
Dew Point: 27°   Wind: 14mph
Humidity: 65%   Direction: 330°NNW
Pressure: 29.67"   Gusts: 23mph
Location:  51.88°N, 176.66°W
Report Text: PADK 230836Z AUTO 33012G20KT 10SM SCT033 BKN043 BKN050 03/M03 A2967 RMK AO1
Loading
Personal Weather Stations






























Interactive Weather Map New forecast layout! Learn more

10-Day Weather Forecast

Advertisements
Track Severe Weather on mobile